CEB200 RPLL-RPMC
Flight info
| Callsign | CEB200 |
|---|---|
| Flight time | 1h 20m |
| Altitude | 37000 |
| Route | VERDE2R VERDE A461 SAJ W3 IOO B472 ALDIN |
| Aircraft | A320/M-SDE3FGHIRWY/LB1 |
Departure
| Time | 2026-05-07 07:05 |
|---|---|
| Airport | Ninoy Aquino International Airport (RPLL) |
Arrival
| Time | 2026-05-07 08:26 |
|---|---|
| Airport | Cotabato (Awang) Airport (RPMC) |
| Time | Latitude | Longitude | Altitude | Speed | Heading |
|---|---|---|---|---|---|
| 2026-05-07 06:20 | 14.52051 | 121.01143 | 82 ft | 0 kts | 45° |
| 2026-05-07 06:47 | 14.52048 | 121.01140 | 82 ft | 2 kts | 45° |
| 2026-05-07 06:47 | 14.52038 | 121.01129 | 82 ft | 2 kts | 45° |
| 2026-05-07 06:48 | 14.52027 | 121.01118 | 82 ft | 2 kts | 45° |
| 2026-05-07 06:48 | 14.52016 | 121.01107 | 82 ft | 2 kts | 45° |
| 2026-05-07 06:48 | 14.52006 | 121.01096 | 82 ft | 2 kts | 45° |
| 2026-05-07 06:48 | 14.51995 | 121.01085 | 82 ft | 2 kts | 45° |
| 2026-05-07 06:49 | 14.51985 | 121.01073 | 82 ft | 2 kts | 70° |
| 2026-05-07 06:49 | 14.51983 | 121.01057 | 82 ft | 2 kts | 94° |
| 2026-05-07 06:49 | 14.51986 | 121.01042 | 82 ft | 2 kts | 119° |
| 2026-05-07 06:49 | 14.51996 | 121.01031 | 82 ft | 2 kts | 140° |
| 2026-05-07 06:50 | 14.52004 | 121.01023 | 82 ft | 0 kts | 133° |
| 2026-05-07 06:53 | 14.51998 | 121.01029 | 82 ft | 2 kts | 133° |
| 2026-05-07 06:54 | 14.51979 | 121.01051 | 81 ft | 4 kts | 134° |
| 2026-05-07 06:54 | 14.51947 | 121.01069 | 82 ft | 5 kts | 177° |
| 2026-05-07 06:54 | 14.51910 | 121.01045 | 81 ft | 6 kts | 208° |
| 2026-05-07 06:54 | 14.51866 | 121.01060 | 81 ft | 8 kts | 133° |
| 2026-05-07 06:55 | 14.51824 | 121.01105 | 81 ft | 9 kts | 134° |
| 2026-05-07 06:55 | 14.51776 | 121.01157 | 81 ft | 10 kts | 136° |
| 2026-05-07 06:55 | 14.51720 | 121.01211 | 81 ft | 11 kts | 136° |
| 2026-05-07 06:55 | 14.51672 | 121.01261 | 81 ft | 7 kts | 134° |
| 2026-05-07 06:56 | 14.51631 | 121.01304 | 81 ft | 9 kts | 135° |
| 2026-05-07 06:56 | 14.51581 | 121.01356 | 81 ft | 11 kts | 135° |
| 2026-05-07 06:56 | 14.51522 | 121.01417 | 81 ft | 12 kts | 134° |
| 2026-05-07 06:56 | 14.51457 | 121.01485 | 81 ft | 13 kts | 135° |
| 2026-05-07 06:57 | 14.51389 | 121.01554 | 81 ft | 14 kts | 134° |
| 2026-05-07 06:57 | 14.51318 | 121.01628 | 81 ft | 14 kts | 134° |
| 2026-05-07 06:57 | 14.51244 | 121.01705 | 81 ft | 15 kts | 134° |
| 2026-05-07 06:57 | 14.51167 | 121.01784 | 81 ft | 15 kts | 134° |
| 2026-05-07 06:58 | 14.51087 | 121.01867 | 81 ft | 16 kts | 134° |
| 2026-05-07 06:58 | 14.51022 | 121.01923 | 81 ft | 8 kts | 175° |
| 2026-05-07 06:58 | 14.50980 | 121.01878 | 81 ft | 9 kts | 238° |
| 2026-05-07 06:58 | 14.50945 | 121.01815 | 81 ft | 10 kts | 240° |
| 2026-05-07 06:59 | 14.50905 | 121.01744 | 81 ft | 11 kts | 240° |
| 2026-05-07 06:59 | 14.50862 | 121.01666 | 81 ft | 12 kts | 240° |
| 2026-05-07 06:59 | 14.50815 | 121.01583 | 81 ft | 13 kts | 240° |
| 2026-05-07 06:59 | 14.50767 | 121.01495 | 81 ft | 14 kts | 240° |
| 2026-05-07 07:00 | 14.50715 | 121.01402 | 81 ft | 15 kts | 240° |
| 2026-05-07 07:00 | 14.50661 | 121.01304 | 81 ft | 15 kts | 239° |
| 2026-05-07 07:00 | 14.50605 | 121.01203 | 81 ft | 16 kts | 240° |
| 2026-05-07 07:00 | 14.50547 | 121.01099 | 81 ft | 17 kts | 240° |
| 2026-05-07 07:01 | 14.50487 | 121.00991 | 81 ft | 17 kts | 240° |
| 2026-05-07 07:01 | 14.50425 | 121.00881 | 81 ft | 17 kts | 240° |
| 2026-05-07 07:01 | 14.50362 | 121.00767 | 81 ft | 18 kts | 240° |
| 2026-05-07 07:01 | 14.50300 | 121.00654 | 81 ft | 18 kts | 240° |
| 2026-05-07 07:02 | 14.50234 | 121.00536 | 81 ft | 18 kts | 240° |
| 2026-05-07 07:02 | 14.50169 | 121.00419 | 81 ft | 19 kts | 241° |
| 2026-05-07 07:02 | 14.50103 | 121.00300 | 81 ft | 19 kts | 240° |
| 2026-05-07 07:02 | 14.50035 | 121.00178 | 81 ft | 19 kts | 240° |
| 2026-05-07 07:03 | 14.49967 | 121.00056 | 81 ft | 18 kts | 240° |
| 2026-05-07 07:03 | 14.49924 | 120.99979 | 82 ft | 11 kts | 235° |
| 2026-05-07 07:03 | 14.49858 | 120.99973 | 82 ft | 9 kts | 148° |
| 2026-05-07 07:03 | 14.49804 | 121.00016 | 82 ft | 9 kts | 117° |
| 2026-05-07 07:04 | 14.49818 | 121.00073 | 82 ft | 7 kts | 61° |
| 2026-05-07 07:04 | 14.49846 | 121.00124 | 82 ft | 8 kts | 60° |
| 2026-05-07 07:04 | 14.49881 | 121.00189 | 82 ft | 21 kts | 62° |
| 2026-05-07 07:04 | 14.50091 | 121.00566 | 82 ft | 95 kts | 61° |
| 2026-05-07 07:05 | 14.50528 | 121.01349 | 82 ft | 155 kts | 61° |
| 2026-05-07 07:05 | 14.51130 | 121.02392 | 454 ft | 172 kts | 60° |
| 2026-05-07 07:05 | 14.51715 | 121.03380 | 1285 ft | 158 kts | 63° |
| 2026-05-07 07:05 | 14.52221 | 121.04309 | 2004 ft | 149 kts | 63° |
| 2026-05-07 07:06 | 14.52719 | 121.05244 | 2519 ft | 150 kts | 63° |
| 2026-05-07 07:06 | 14.53222 | 121.06180 | 3024 ft | 152 kts | 62° |
| 2026-05-07 07:06 | 14.53747 | 121.07146 | 3439 ft | 161 kts | 62° |
| 2026-05-07 07:06 | 14.54330 | 121.08209 | 3778 ft | 177 kts | 62° |
| 2026-05-07 07:07 | 14.54966 | 121.09364 | 4126 ft | 194 kts | 61° |
| 2026-05-07 07:07 | 14.55659 | 121.10617 | 4483 ft | 210 kts | 61° |
| 2026-05-07 07:07 | 14.56310 | 121.12055 | 4724 ft | 234 kts | 78° |
| 2026-05-07 07:07 | 14.56266 | 121.13783 | 5105 ft | 254 kts | 105° |
| 2026-05-07 07:08 | 14.55352 | 121.15411 | 5552 ft | 273 kts | 132° |
| 2026-05-07 07:08 | 14.53966 | 121.16792 | 6263 ft | 278 kts | 134° |
| 2026-05-07 07:08 | 14.52574 | 121.18212 | 7039 ft | 281 kts | 133° |
| 2026-05-07 07:08 | 14.51210 | 121.19626 | 7789 ft | 284 kts | 133° |
| 2026-05-07 07:09 | 14.49810 | 121.21079 | 8573 ft | 286 kts | 133° |
| 2026-05-07 07:09 | 14.48363 | 121.22499 | 9302 ft | 291 kts | 142° |
| 2026-05-07 07:09 | 14.46527 | 121.23367 | 9995 ft | 298 kts | 166° |
| 2026-05-07 07:09 | 14.44409 | 121.23396 | 10564 ft | 311 kts | 190° |
| 2026-05-07 07:10 | 14.42378 | 121.22485 | 10885 ft | 331 kts | 216° |
| 2026-05-07 07:10 | 14.40724 | 121.20761 | 11183 ft | 348 kts | 228° |
| 2026-05-07 07:10 | 14.39106 | 121.18838 | 11612 ft | 359 kts | 228° |
| 2026-05-07 07:10 | 14.37441 | 121.16884 | 12248 ft | 361 kts | 227° |
| 2026-05-07 07:11 | 14.35775 | 121.14953 | 12855 ft | 364 kts | 227° |
| 2026-05-07 07:11 | 14.34067 | 121.12990 | 13436 ft | 367 kts | 227° |
| 2026-05-07 07:11 | 14.32355 | 121.11030 | 13983 ft | 370 kts | 227° |
| 2026-05-07 07:11 | 14.30606 | 121.09033 | 14542 ft | 373 kts | 227° |
| 2026-05-07 07:12 | 14.28791 | 121.07083 | 15107 ft | 375 kts | 223° |
| 2026-05-07 07:12 | 14.26803 | 121.05306 | 15596 ft | 378 kts | 217° |
| 2026-05-07 07:12 | 14.24642 | 121.03694 | 16116 ft | 381 kts | 214° |
| 2026-05-07 07:12 | 14.22458 | 121.02156 | 16595 ft | 384 kts | 213° |
| 2026-05-07 07:13 | 14.20232 | 121.00600 | 17069 ft | 386 kts | 213° |
| 2026-05-07 07:13 | 14.17972 | 120.99017 | 17540 ft | 389 kts | 213° |
| 2026-05-07 07:13 | 14.15711 | 120.97428 | 18020 ft | 391 kts | 214° |
| 2026-05-07 07:13 | 14.13433 | 120.95823 | 18481 ft | 394 kts | 213° |
| 2026-05-07 07:14 | 14.11143 | 120.94210 | 18923 ft | 396 kts | 213° |
| 2026-05-07 07:14 | 14.08865 | 120.92605 | 19360 ft | 398 kts | 213° |
| 2026-05-07 07:14 | 14.06527 | 120.91011 | 19773 ft | 400 kts | 208° |
| 2026-05-07 07:14 | 14.03880 | 120.90060 | 20147 ft | 401 kts | 187° |
| 2026-05-07 07:15 | 14.01121 | 120.90093 | 20547 ft | 400 kts | 168° |
| 2026-05-07 07:15 | 13.98371 | 120.90774 | 20973 ft | 401 kts | 164° |
| 2026-05-07 07:15 | 13.95658 | 120.91499 | 21342 ft | 404 kts | 164° |
| 2026-05-07 07:15 | 13.92925 | 120.92223 | 21711 ft | 406 kts | 164° |
| 2026-05-07 07:16 | 13.90176 | 120.92944 | 22089 ft | 409 kts | 164° |
| 2026-05-07 07:16 | 13.87430 | 120.93658 | 22472 ft | 411 kts | 164° |
| 2026-05-07 07:16 | 13.84638 | 120.94379 | 22838 ft | 414 kts | 165° |
| 2026-05-07 07:16 | 13.81813 | 120.95106 | 23209 ft | 416 kts | 165° |
| 2026-05-07 07:17 | 13.79000 | 120.95830 | 23580 ft | 419 kts | 165° |
| 2026-05-07 07:17 | 13.76131 | 120.96566 | 23936 ft | 421 kts | 165° |
| 2026-05-07 07:17 | 13.73278 | 120.97298 | 24278 ft | 424 kts | 165° |
| 2026-05-07 07:17 | 13.70388 | 120.98039 | 24609 ft | 427 kts | 165° |
| 2026-05-07 07:18 | 13.67511 | 120.98776 | 24929 ft | 430 kts | 165° |
| 2026-05-07 07:18 | 13.64596 | 120.99524 | 25244 ft | 433 kts | 165° |
| 2026-05-07 07:18 | 13.61649 | 121.00280 | 25564 ft | 435 kts | 165° |
| 2026-05-07 07:18 | 13.58714 | 121.01032 | 25885 ft | 438 kts | 165° |
| 2026-05-07 07:19 | 13.55706 | 121.01802 | 26200 ft | 440 kts | 165° |
| 2026-05-07 07:19 | 13.52722 | 121.02506 | 26509 ft | 443 kts | 168° |
| 2026-05-07 07:19 | 13.49672 | 121.02986 | 26824 ft | 445 kts | 173° |
| 2026-05-07 07:19 | 13.46564 | 121.03218 | 27127 ft | 448 kts | 178° |
| 2026-05-07 07:20 | 13.43423 | 121.03273 | 27452 ft | 450 kts | 179° |
| 2026-05-07 07:20 | 13.40295 | 121.03296 | 27768 ft | 451 kts | 179° |
| 2026-05-07 07:20 | 13.37145 | 121.03315 | 28099 ft | 453 kts | 180° |
| 2026-05-07 07:20 | 13.33953 | 121.03339 | 28419 ft | 455 kts | 179° |
| 2026-05-07 07:21 | 13.30766 | 121.03368 | 28722 ft | 457 kts | 179° |
| 2026-05-07 07:21 | 13.27600 | 121.03400 | 28996 ft | 459 kts | 180° |
| 2026-05-07 07:21 | 13.24383 | 121.03432 | 29319 ft | 460 kts | 180° |
| 2026-05-07 07:21 | 13.21164 | 121.03462 | 29629 ft | 461 kts | 180° |
| 2026-05-07 07:22 | 13.17956 | 121.03492 | 29929 ft | 462 kts | 180° |
| 2026-05-07 07:22 | 13.14754 | 121.03522 | 30215 ft | 463 kts | 180° |
| 2026-05-07 07:22 | 13.11529 | 121.03553 | 30511 ft | 463 kts | 180° |
| 2026-05-07 07:22 | 13.08272 | 121.03585 | 30793 ft | 464 kts | 180° |
| 2026-05-07 07:23 | 13.05032 | 121.03616 | 31052 ft | 464 kts | 180° |
| 2026-05-07 07:23 | 13.01780 | 121.03649 | 31308 ft | 465 kts | 180° |
| 2026-05-07 07:23 | 12.98572 | 121.03680 | 31636 ft | 463 kts | 180° |
| 2026-05-07 07:23 | 12.95367 | 121.03713 | 31991 ft | 460 kts | 180° |
| 2026-05-07 07:24 | 12.92156 | 121.03745 | 32334 ft | 458 kts | 181° |
| 2026-05-07 07:24 | 12.88947 | 121.03777 | 32669 ft | 457 kts | 181° |
| 2026-05-07 07:24 | 12.85771 | 121.03808 | 33030 ft | 455 kts | 181° |
| 2026-05-07 07:24 | 12.82600 | 121.03839 | 33395 ft | 454 kts | 181° |
| 2026-05-07 07:25 | 12.76282 | 121.03900 | 34158 ft | 451 kts | 181° |
| 2026-05-07 07:25 | 12.73134 | 121.03932 | 34540 ft | 449 kts | 181° |
| 2026-05-07 07:25 | 12.70035 | 121.03963 | 34900 ft | 448 kts | 181° |
| 2026-05-07 07:26 | 12.66915 | 121.03994 | 35235 ft | 447 kts | 181° |
| 2026-05-07 07:26 | 12.63773 | 121.04024 | 35491 ft | 447 kts | 180° |
| 2026-05-07 07:26 | 12.60663 | 121.04057 | 35689 ft | 448 kts | 181° |
| 2026-05-07 07:26 | 12.57546 | 121.04088 | 35890 ft | 449 kts | 180° |
| 2026-05-07 07:27 | 12.54378 | 121.04121 | 36088 ft | 450 kts | 181° |
| 2026-05-07 07:27 | 12.51228 | 121.04153 | 36276 ft | 450 kts | 180° |
| 2026-05-07 07:27 | 12.48087 | 121.04184 | 36449 ft | 451 kts | 180° |
| 2026-05-07 07:27 | 12.44956 | 121.04258 | 36601 ft | 452 kts | 177° |
| 2026-05-07 07:28 | 12.41796 | 121.04661 | 36748 ft | 454 kts | 170° |
| 2026-05-07 07:28 | 12.35733 | 121.06576 | 36829 ft | 458 kts | 157° |
| 2026-05-07 07:29 | 12.30212 | 121.09948 | 36832 ft | 462 kts | 143° |
| 2026-05-07 07:29 | 12.25435 | 121.14319 | 36834 ft | 463 kts | 138° |
| 2026-05-07 07:30 | 12.20737 | 121.18852 | 36834 ft | 463 kts | 138° |
| 2026-05-07 07:30 | 12.16031 | 121.23376 | 36832 ft | 462 kts | 138° |
| 2026-05-07 07:31 | 12.11344 | 121.27864 | 36819 ft | 462 kts | 138° |
| 2026-05-07 07:31 | 12.06638 | 121.32361 | 36807 ft | 462 kts | 138° |
| 2026-05-07 07:32 | 12.01931 | 121.36855 | 36798 ft | 462 kts | 138° |
| 2026-05-07 07:32 | 11.97234 | 121.41338 | 36791 ft | 462 kts | 138° |
| 2026-05-07 07:33 | 11.92535 | 121.45820 | 36788 ft | 462 kts | 138° |
| 2026-05-07 07:33 | 11.87823 | 121.50313 | 36790 ft | 462 kts | 138° |
| 2026-05-07 07:34 | 11.83145 | 121.54771 | 36795 ft | 462 kts | 138° |
| 2026-05-07 07:34 | 11.78425 | 121.59270 | 36795 ft | 462 kts | 138° |
| 2026-05-07 07:35 | 11.73723 | 121.63751 | 36791 ft | 462 kts | 138° |
| 2026-05-07 07:35 | 11.69036 | 121.68219 | 36788 ft | 462 kts | 138° |
| 2026-05-07 07:36 | 11.64324 | 121.72697 | 36786 ft | 462 kts | 138° |
| 2026-05-07 07:36 | 11.59631 | 121.77148 | 36784 ft | 462 kts | 138° |
| 2026-05-07 07:37 | 11.54920 | 121.81626 | 36782 ft | 462 kts | 138° |
| 2026-05-07 07:37 | 11.50212 | 121.86100 | 36781 ft | 462 kts | 138° |
| 2026-05-07 07:38 | 11.45497 | 121.90567 | 36778 ft | 462 kts | 138° |
| 2026-05-07 07:38 | 11.40804 | 121.95010 | 36779 ft | 461 kts | 138° |
| 2026-05-07 07:39 | 11.36117 | 121.99452 | 36778 ft | 461 kts | 138° |
| 2026-05-07 07:39 | 11.31425 | 122.03901 | 36779 ft | 460 kts | 138° |
| 2026-05-07 07:40 | 11.26713 | 122.08367 | 36798 ft | 460 kts | 138° |
| 2026-05-07 07:40 | 11.22029 | 122.12805 | 36817 ft | 460 kts | 138° |
| 2026-05-07 07:41 | 11.17342 | 122.17245 | 36843 ft | 460 kts | 138° |
| 2026-05-07 07:41 | 11.13195 | 122.21174 | 36865 ft | 460 kts | 138° |
| 2026-05-07 07:42 | 11.08497 | 122.25624 | 36891 ft | 460 kts | 138° |
| 2026-05-07 07:42 | 11.03825 | 122.30038 | 36894 ft | 460 kts | 138° |
| 2026-05-07 07:43 | 10.99141 | 122.34454 | 36884 ft | 460 kts | 138° |
| 2026-05-07 07:43 | 10.94449 | 122.38886 | 36856 ft | 460 kts | 138° |
| 2026-05-07 07:44 | 10.89739 | 122.43320 | 36827 ft | 460 kts | 139° |
| 2026-05-07 07:44 | 10.84732 | 122.47421 | 36805 ft | 459 kts | 145° |
| 2026-05-07 07:45 | 10.79368 | 122.50925 | 36787 ft | 458 kts | 151° |
| 2026-05-07 07:45 | 10.73688 | 122.53839 | 36779 ft | 457 kts | 155° |
| 2026-05-07 07:46 | 10.67900 | 122.56578 | 36778 ft | 457 kts | 155° |
| 2026-05-07 07:46 | 10.62109 | 122.59315 | 36783 ft | 457 kts | 155° |
| 2026-05-07 07:47 | 10.56364 | 122.62033 | 36782 ft | 458 kts | 155° |
| 2026-05-07 07:47 | 10.50545 | 122.64786 | 36783 ft | 458 kts | 155° |
| 2026-05-07 07:48 | 10.44778 | 122.67516 | 36783 ft | 458 kts | 155° |
| 2026-05-07 07:48 | 10.39005 | 122.70245 | 36783 ft | 458 kts | 155° |
| 2026-05-07 07:49 | 10.33200 | 122.72981 | 36786 ft | 457 kts | 155° |
| 2026-05-07 07:49 | 10.27453 | 122.75691 | 36788 ft | 456 kts | 155° |
| 2026-05-07 07:50 | 10.21667 | 122.78423 | 36797 ft | 457 kts | 155° |
| 2026-05-07 07:50 | 10.15914 | 122.81134 | 36812 ft | 457 kts | 155° |
| 2026-05-07 07:51 | 10.10114 | 122.83861 | 36823 ft | 457 kts | 155° |
| 2026-05-07 07:51 | 10.04317 | 122.86588 | 36836 ft | 458 kts | 155° |
| 2026-05-07 07:52 | 9.98535 | 122.89310 | 36856 ft | 457 kts | 155° |
| 2026-05-07 07:52 | 9.92786 | 122.92018 | 36869 ft | 457 kts | 155° |
| 2026-05-07 07:53 | 9.86955 | 122.94768 | 36878 ft | 457 kts | 155° |
| 2026-05-07 07:53 | 9.81165 | 122.97494 | 36896 ft | 457 kts | 155° |
| 2026-05-07 07:54 | 9.75375 | 123.00210 | 36902 ft | 458 kts | 155° |
| 2026-05-07 07:54 | 9.69575 | 123.02927 | 36893 ft | 459 kts | 155° |
| 2026-05-07 07:55 | 9.63761 | 123.05657 | 36874 ft | 460 kts | 155° |
| 2026-05-07 07:55 | 9.57968 | 123.08379 | 36853 ft | 459 kts | 155° |
| 2026-05-07 07:56 | 9.52158 | 123.11105 | 36837 ft | 460 kts | 155° |
| 2026-05-07 07:56 | 9.46349 | 123.13832 | 36824 ft | 459 kts | 155° |
| 2026-05-07 07:57 | 9.40526 | 123.16565 | 36813 ft | 460 kts | 155° |
| 2026-05-07 07:57 | 9.34712 | 123.19293 | 36807 ft | 461 kts | 155° |
| 2026-05-07 07:58 | 9.28867 | 123.22036 | 36810 ft | 462 kts | 155° |
| 2026-05-07 07:58 | 9.23045 | 123.24766 | 36814 ft | 463 kts | 155° |
| 2026-05-07 07:59 | 9.17178 | 123.27520 | 36808 ft | 463 kts | 155° |
| 2026-05-07 07:59 | 9.11295 | 123.30276 | 36800 ft | 463 kts | 155° |
| 2026-05-07 08:00 | 9.05481 | 123.32989 | 36791 ft | 462 kts | 155° |
| 2026-05-07 08:00 | 8.99632 | 123.35719 | 36785 ft | 462 kts | 155° |
| 2026-05-07 08:01 | 8.93797 | 123.38448 | 36777 ft | 462 kts | 155° |
| 2026-05-07 08:01 | 8.87952 | 123.41180 | 36670 ft | 463 kts | 155° |
| 2026-05-07 08:01 | 8.84996 | 123.42561 | 35788 ft | 467 kts | 155° |
| 2026-05-07 08:02 | 8.82028 | 123.43947 | 34800 ft | 469 kts | 154° |
| 2026-05-07 08:02 | 8.79083 | 123.45321 | 33894 ft | 469 kts | 154° |
| 2026-05-07 08:02 | 8.76139 | 123.46696 | 33032 ft | 468 kts | 154° |
| 2026-05-07 08:02 | 8.73189 | 123.48074 | 32207 ft | 467 kts | 154° |
| 2026-05-07 08:03 | 8.70243 | 123.49454 | 31566 ft | 463 kts | 154° |
| 2026-05-07 08:03 | 8.67308 | 123.50826 | 31019 ft | 464 kts | 154° |
| 2026-05-07 08:03 | 8.64410 | 123.52181 | 30408 ft | 460 kts | 154° |
| 2026-05-07 08:03 | 8.61500 | 123.53542 | 29830 ft | 456 kts | 154° |
| 2026-05-07 08:04 | 8.58637 | 123.54878 | 29264 ft | 451 kts | 154° |
| 2026-05-07 08:04 | 8.55785 | 123.56209 | 28702 ft | 447 kts | 154° |
| 2026-05-07 08:04 | 8.52969 | 123.57524 | 28165 ft | 443 kts | 154° |
| 2026-05-07 08:04 | 8.50205 | 123.58813 | 27656 ft | 438 kts | 154° |
| 2026-05-07 08:05 | 8.47449 | 123.60098 | 27160 ft | 433 kts | 154° |
| 2026-05-07 08:05 | 8.44721 | 123.61372 | 26671 ft | 428 kts | 154° |
| 2026-05-07 08:05 | 8.42045 | 123.62619 | 26175 ft | 424 kts | 153° |
| 2026-05-07 08:05 | 8.39369 | 123.63868 | 25687 ft | 420 kts | 153° |
| 2026-05-07 08:06 | 8.36746 | 123.65091 | 25206 ft | 416 kts | 153° |
| 2026-05-07 08:06 | 8.34066 | 123.66341 | 24705 ft | 412 kts | 153° |
| 2026-05-07 08:06 | 8.31471 | 123.67551 | 24220 ft | 408 kts | 153° |
| 2026-05-07 08:06 | 8.28925 | 123.68738 | 23739 ft | 405 kts | 153° |
| 2026-05-07 08:07 | 8.26431 | 123.69900 | 23266 ft | 402 kts | 153° |
| 2026-05-07 08:07 | 8.23871 | 123.71094 | 22775 ft | 399 kts | 153° |
| 2026-05-07 08:07 | 8.21357 | 123.72265 | 22278 ft | 397 kts | 153° |
| 2026-05-07 08:07 | 8.18867 | 123.73426 | 21792 ft | 396 kts | 153° |
| 2026-05-07 08:08 | 8.16331 | 123.74608 | 21289 ft | 394 kts | 153° |
| 2026-05-07 08:08 | 8.13846 | 123.75767 | 20795 ft | 392 kts | 152° |
| 2026-05-07 08:08 | 8.11391 | 123.76909 | 20311 ft | 391 kts | 152° |
| 2026-05-07 08:08 | 8.08925 | 123.78056 | 19821 ft | 389 kts | 152° |
| 2026-05-07 08:09 | 8.06445 | 123.79211 | 19324 ft | 387 kts | 152° |
| 2026-05-07 08:09 | 8.04017 | 123.80341 | 18842 ft | 385 kts | 152° |
| 2026-05-07 08:09 | 8.01592 | 123.81470 | 18353 ft | 383 kts | 152° |
| 2026-05-07 08:09 | 7.99167 | 123.82598 | 17873 ft | 381 kts | 152° |
| 2026-05-07 08:10 | 7.97562 | 123.83345 | 17558 ft | 379 kts | 152° |
| 2026-05-07 08:10 | 7.90764 | 123.86509 | 16184 ft | 374 kts | 152° |
| 2026-05-07 08:11 | 7.86845 | 123.88336 | 15372 ft | 371 kts | 152° |
| 2026-05-07 08:11 | 7.82940 | 123.90152 | 14551 ft | 368 kts | 152° |
| 2026-05-07 08:11 | 7.80612 | 123.91235 | 14059 ft | 366 kts | 152° |
| 2026-05-07 08:12 | 7.78299 | 123.92310 | 13569 ft | 364 kts | 152° |
| 2026-05-07 08:12 | 7.76013 | 123.93372 | 13081 ft | 361 kts | 152° |
| 2026-05-07 08:12 | 7.73744 | 123.94425 | 12606 ft | 358 kts | 152° |
| 2026-05-07 08:12 | 7.71479 | 123.95480 | 12100 ft | 355 kts | 152° |
| 2026-05-07 08:13 | 7.69233 | 123.96523 | 11596 ft | 352 kts | 152° |
| 2026-05-07 08:13 | 7.67035 | 123.97545 | 11104 ft | 350 kts | 153° |
| 2026-05-07 08:13 | 7.64822 | 123.98573 | 10654 ft | 343 kts | 153° |
| 2026-05-07 08:13 | 7.62736 | 123.99541 | 10329 ft | 320 kts | 153° |
| 2026-05-07 08:14 | 7.60796 | 124.00436 | 10225 ft | 294 kts | 152° |
| 2026-05-07 08:14 | 7.58933 | 124.01301 | 10140 ft | 289 kts | 152° |
| 2026-05-07 08:14 | 7.57118 | 124.02148 | 10005 ft | 290 kts | 152° |
| 2026-05-07 08:14 | 7.55277 | 124.03006 | 9620 ft | 290 kts | 152° |
| 2026-05-07 08:15 | 7.53436 | 124.03864 | 9244 ft | 289 kts | 152° |
| 2026-05-07 08:15 | 7.51605 | 124.04717 | 8870 ft | 288 kts | 153° |
| 2026-05-07 08:15 | 7.49796 | 124.05557 | 8501 ft | 287 kts | 153° |
| 2026-05-07 08:15 | 7.47969 | 124.06406 | 8145 ft | 285 kts | 153° |
| 2026-05-07 08:16 | 7.46768 | 124.06963 | 7914 ft | 284 kts | 153° |
| 2026-05-07 08:16 | 7.41010 | 124.09635 | 6769 ft | 280 kts | 153° |
| 2026-05-07 08:17 | 7.39264 | 124.10444 | 6419 ft | 279 kts | 153° |
| 2026-05-07 08:17 | 7.38661 | 124.10725 | 6301 ft | 279 kts | 154° |
| 2026-05-07 08:18 | 7.31717 | 124.13946 | 4932 ft | 273 kts | 154° |
| 2026-05-07 08:18 | 7.29971 | 124.14756 | 4592 ft | 271 kts | 154° |
| 2026-05-07 08:18 | 7.28272 | 124.15548 | 4252 ft | 269 kts | 155° |
| 2026-05-07 08:18 | 7.26576 | 124.16334 | 3914 ft | 267 kts | 155° |
| 2026-05-07 08:19 | 7.24886 | 124.17118 | 3578 ft | 266 kts | 155° |
| 2026-05-07 08:19 | 7.23231 | 124.17884 | 3450 ft | 254 kts | 155° |
| 2026-05-07 08:19 | 7.21665 | 124.18608 | 3434 ft | 240 kts | 155° |
| 2026-05-07 08:20 | 7.17659 | 124.20468 | 3322 ft | 210 kts | 155° |
| 2026-05-07 08:20 | 7.16445 | 124.21204 | 3189 ft | 204 kts | 131° |
| 2026-05-07 08:20 | 7.15854 | 124.22485 | 3074 ft | 199 kts | 104° |
| 2026-05-07 08:21 | 7.15612 | 124.23816 | 3037 ft | 187 kts | 101° |
| 2026-05-07 08:21 | 7.15407 | 124.25047 | 2784 ft | 176 kts | 102° |
| 2026-05-07 08:21 | 7.15181 | 124.26238 | 2495 ft | 169 kts | 103° |
| 2026-05-07 08:21 | 7.14942 | 124.27373 | 2254 ft | 160 kts | 103° |
| 2026-05-07 08:22 | 7.14705 | 124.28442 | 2039 ft | 153 kts | 104° |
| 2026-05-07 08:22 | 7.14541 | 124.29467 | 1832 ft | 149 kts | 86° |
| 2026-05-07 08:22 | 7.15091 | 124.30306 | 1659 ft | 151 kts | 26° |
| 2026-05-07 08:22 | 7.16090 | 124.30332 | 1568 ft | 144 kts | 334° |
| 2026-05-07 08:23 | 7.16752 | 124.29621 | 1540 ft | 141 kts | 284° |
| 2026-05-07 08:23 | 7.16673 | 124.28683 | 1532 ft | 137 kts | 237° |
| 2026-05-07 08:23 | 7.15939 | 124.28125 | 1453 ft | 135 kts | 193° |
| 2026-05-07 08:23 | 7.15079 | 124.27904 | 1335 ft | 137 kts | 204° |
| 2026-05-07 08:24 | 7.14552 | 124.27151 | 1142 ft | 138 kts | 270° |
| 2026-05-07 08:24 | 7.14872 | 124.26241 | 1079 ft | 139 kts | 301° |
| 2026-05-07 08:24 | 7.15403 | 124.25429 | 966 ft | 138 kts | 294° |
| 2026-05-07 08:24 | 7.15648 | 124.24509 | 835 ft | 137 kts | 279° |
| 2026-05-07 08:25 | 7.15884 | 124.23579 | 670 ft | 137 kts | 280° |
| 2026-05-07 08:25 | 7.16089 | 124.22636 | 480 ft | 139 kts | 282° |
| 2026-05-07 08:25 | 7.16323 | 124.21690 | 227 ft | 136 kts | 282° |
| 2026-05-07 08:25 | 7.16521 | 124.20830 | 196 ft | 103 kts | 285° |
| 2026-05-07 08:26 | 7.16663 | 124.20252 | 197 ft | 10 kts | 295° |
| 2026-05-07 08:26 | 7.16677 | 124.20197 | 196 ft | 4 kts | 202° |
| 2026-05-07 08:26 | 7.16661 | 124.20231 | 197 ft | 6 kts | 102° |
| 2026-05-07 08:27 | 7.16652 | 124.20271 | 198 ft | 5 kts | 102° |
| 2026-05-07 08:27 | 7.16645 | 124.20312 | 198 ft | 5 kts | 101° |
| 2026-05-07 08:27 | 7.16637 | 124.20350 | 199 ft | 5 kts | 103° |
| 2026-05-07 08:27 | 7.16626 | 124.20392 | 199 ft | 6 kts | 105° |
| 2026-05-07 08:28 | 7.16613 | 124.20441 | 200 ft | 7 kts | 104° |
| 2026-05-07 08:28 | 7.16599 | 124.20501 | 199 ft | 9 kts | 102° |
| 2026-05-07 08:28 | 7.16583 | 124.20573 | 199 ft | 11 kts | 103° |
| 2026-05-07 08:28 | 7.16562 | 124.20660 | 199 ft | 13 kts | 104° |
| 2026-05-07 08:29 | 7.16538 | 124.20760 | 196 ft | 16 kts | 102° |
| 2026-05-07 08:29 | 7.16511 | 124.20875 | 194 ft | 18 kts | 104° |
| 2026-05-07 08:29 | 7.16479 | 124.21010 | 189 ft | 21 kts | 101° |
| 2026-05-07 08:29 | 7.16447 | 124.21147 | 185 ft | 14 kts | 102° |
| 2026-05-07 08:30 | 7.16422 | 124.21254 | 183 ft | 16 kts | 103° |
| 2026-05-07 08:30 | 7.16394 | 124.21373 | 181 ft | 18 kts | 103° |
| 2026-05-07 08:30 | 7.16362 | 124.21445 | 179 ft | 9 kts | 149° |
| 2026-05-07 08:30 | 7.16315 | 124.21460 | 180 ft | 6 kts | 166° |
| 2026-05-07 08:31 | 7.16294 | 124.21469 | 180 ft | 3 kts | 119° |
| 2026-05-07 08:31 | 7.16279 | 124.21499 | 180 ft | 5 kts | 110° |
| 2026-05-07 08:31 | 7.16270 | 124.21549 | 178 ft | 6 kts | 104° |
| 2026-05-07 08:31 | 7.16263 | 124.21560 | 178 ft | 3 kts | 142° |
| 2026-05-07 08:32 | 7.16247 | 124.21556 | 179 ft | 1 kts | 218° |
| 2026-05-07 08:32 | 7.16244 | 124.21554 | 179 ft | 0 kts | 221° |
| 2026-05-07 08:32 | 7.16234 | 124.21545 | 180 ft | 4 kts | 219° |
| 2026-05-07 08:32 | 7.16224 | 124.21538 | 180 ft | 0 kts | 217° |
| 2026-05-07 08:33 | 7.16221 | 124.21535 | 181 ft | 0 kts | 217° |